Time;durP1;ratioP1;P1;durP2;ratioP2;P2;SDS_P1;SDS_P2;PMS_P1;PMS_P2;Temp;Humidity;BMP_temperature;BMP_pressure;BME280_temperature;BME280_humidity;BME280_pressure;Samples;Min_cycle;Max_cycle;Signal;HPM_P1;HPM_P2
2023/02/15 00:02:12;;;;;;;;;;;;;;;-0.87;76.69;102691.20;104986;1288;77497;-74
2023/02/15 00:04:58;;;;;;;;;;;;;;;-0.88;76.62;102689.91;105109;1288;67371;-74
2023/02/15 00:07:44;;;;;;;;;;;;;;;-0.90;76.73;102684.91;105058;1288;71119;-74
2023/02/15 00:10:30;;;;;;;;;;;;;;;-0.91;76.61;102682.96;105106;1291;61122;-74
2023/02/15 00:13:16;;;;;;;;;;;;;;;-0.90;76.66;102677.61;105106;1288;59726;-74
2023/02/15 00:16:03;;;;;;;;;;;;;;;-0.92;76.64;102674.41;105098;1288;73961;-74
2023/02/15 00:18:51;;;;;;;;;;;;;;;-0.96;76.60;102671.47;105133;1288;68993;-74
2023/02/15 00:21:38;;;;;;;;;;;;;;;-0.96;76.65;102669.58;105126;1289;71568;-74
2023/02/15 00:24:24;;;;;;;;;;;;;;;-0.93;76.85;102664.54;105147;1288;61114;-74
2023/02/15 00:27:10;;;;;;;;;;;;;;;-0.95;76.72;102666.63;105007;1288;59568;-74
2023/02/15 00:29:56;;;;;;;;;;;;;;;-0.96;76.68;102666.55;105074;1290;73290;-74
2023/02/15 00:32:42;;;;;;;;;;;;;;;-1.02;76.64;102664.84;105034;1288;67191;-74
2023/02/15 00:35:29;;;;;;;;;;;;;;;-1.01;76.71;102664.40;104978;1289;71286;-74
2023/02/15 00:38:15;;;;;;;;;;;;;;;-1.01;76.74;102663.40;105100;1288;61439;-74
2023/02/15 00:41:03;;;;;;;;;;;;;;;-0.99;76.69;102663.16;105096;1288;62124;-74
2023/02/15 00:43:49;;;;;;;;;;;;;;;-1.01;76.71;102659.85;105086;1288;73329;-74
2023/02/15 00:46:35;;;;;;;;;;;;;;;-1.02;76.73;102651.31;105075;1288;67298;-75
2023/02/15 00:49:21;;;;;;;;;;;;;;;-1.04;76.65;102650.18;105052;1288;70328;-75
2023/02/15 00:52:07;;;;;;;;;;;;;;;-1.06;76.65;102651.05;104950;1288;59104;-74
2023/02/15 00:54:53;;;;;;;;;;;;;;;-1.08;76.74;102650.60;105081;1290;61138;-74
2023/02/15 00:57:39;;;;;;;;;;;;;;;-1.11;76.63;102648.52;104969;1288;75245;-74
2023/02/15 01:00:25;;;;;;;;;;;;;;;-1.13;76.66;102648.92;104968;1288;68520;-74
2023/02/15 01:03:12;;;;;;;;;;;;;;;-1.14;76.63;102642.80;104981;1288;71586;-74
2023/02/15 01:05:59;;;;;;;;;;;;;;;-1.16;76.69;102643.19;105011;1288;61146;-74
2023/02/15 01:08:46;;;;;;;;;;;;;;;-1.19;76.60;102641.56;104999;1288;61189;-74
2023/02/15 01:11:32;;;;;;;;;;;;;;;-1.22;76.65;102641.07;104983;1293;73352;-74
2023/02/15 01:14:19;;;;;;;;;;;;;;;-1.23;76.66;102637.95;104968;1291;67225;-74
2023/02/15 01:17:05;;;;;;;;;;;;;;;-1.26;76.70;102635.56;105003;1289;72410;-74
2023/02/15 01:19:51;;;;;;;;;;;;;;;-1.27;76.73;102634.95;105082;1287;62808;-74
2023/02/15 01:22:37;;;;;;;;;;;;;;;-1.31;76.63;102634.08;105136;1287;61266;-75
2023/02/15 01:25:23;;;;;;;;;;;;;;;-1.31;76.70;102635.58;105044;1289;73629;-75
2023/02/15 01:28:10;;;;;;;;;;;;;;;-1.33;76.60;102633.25;105031;1292;67366;-75
2023/02/15 01:30:56;;;;;;;;;;;;;;;-1.35;76.61;102630.95;105076;1290;71286;-74
2023/02/15 01:33:42;;;;;;;;;;;;;;;-1.35;76.65;102629.08;104869;1288;62889;-74
2023/02/15 01:36:28;;;;;;;;;;;;;;;-1.35;76.71;102630.23;105094;1290;61388;-74
2023/02/15 01:39:14;;;;;;;;;;;;;;;-1.35;76.73;102624.00;105022;1288;75763;-74
2023/02/15 01:42:00;;;;;;;;;;;;;;;-1.36;76.74;102623.96;105131;1288;69882;-74
2023/02/15 01:45:10;;;;;;;;;;;;;;;-1.36;76.65;102624.14;105147;1288;71722;-74
2023/02/15 01:48:01;;;;;;;;;;;;;;;-1.39;76.61;102617.99;104413;1296;61068;-74
2023/02/15 01:50:51;;;;;;;;;;;;;;;-1.40;76.64;102618.09;104493;1294;61261;-74
2023/02/15 01:53:40;;;;;;;;;;;;;;;-1.41;76.62;102615.66;104528;1298;76028;-74
2023/02/15 01:56:29;;;;;;;;;;;;;;;-1.46;76.58;102615.86;104509;1294;68509;-74
2023/02/15 01:59:19;;;;;;;;;;;;;;;-1.47;76.75;102618.33;104501;1295;75240;-74
2023/02/15 02:02:07;;;;;;;;;;;;;;;-1.44;76.71;102617.30;104599;1296;61147;-74
2023/02/15 02:04:57;;;;;;;;;;;;;;;-1.43;76.68;102621.45;104511;1295;62887;-74
2023/02/15 02:07:45;;;;;;;;;;;;;;;-1.43;76.69;102613.63;104449;1295;73486;-74
2023/02/15 02:10:31;;;;;;;;;;;;;;;-1.46;76.61;102617.01;104565;1295;67344;-74
2023/02/15 02:13:17;;;;;;;;;;;;;;;-1.49;76.69;102614.45;104358;1294;72230;-74
2023/02/15 02:16:09;;;;;;;;;;;;;;;-1.49;76.76;102610.04;104546;1295;61271;-74
2023/02/15 02:19:19;;;;;;;;;;;;;;;-1.51;76.67;102606.20;104533;1299;59748;-74
2023/02/15 02:22:21;;;;;;;;;;;;;;;-1.56;76.68;102600.13;104047;1301;73314;-74
2023/02/15 02:25:27;;;;;;;;;;;;;;;-1.59;76.69;102598.25;104061;1296;69252;-74
2023/02/15 02:28:13;;;;;;;;;;;;;;;-1.60;76.75;102593.45;104430;1296;71359;-74
2023/02/15 02:31:14;;;;;;;;;;;;;;;-1.61;76.71;102590.52;104389;1296;61288;-74
2023/02/15 02:34:35;;;;;;;;;;;;;;;-1.62;76.71;102583.67;104415;1296;61226;-74
2023/02/15 02:37:21;;;;;;;;;;;;;;;-1.65;76.70;102578.40;104025;1300;74068;-74
2023/02/15 02:40:20;;;;;;;;;;;;;;;-1.70;76.68;102576.77;103969;1302;67443;-74
2023/02/15 02:43:20;;;;;;;;;;;;;;;-1.72;76.73;102572.92;104006;1302;70465;-75
2023/02/15 02:46:09;;;;;;;;;;;;;;;-1.74;76.79;102570.42;103990;1301;61259;-75
2023/02/15 02:48:56;;;;;;;;;;;;;;;-1.73;76.87;102571.17;103954;1302;61640;-74
2023/02/15 02:51:42;;;;;;;;;;;;;;;-1.73;76.75;102570.14;103837;1301;228250;-74
2023/02/15 02:54:30;;;;;;;;;;;;;;;-1.76;76.74;102569.94;104018;1302;68358;-74
2023/02/15 02:57:16;;;;;;;;;;;;;;;-1.77;76.75;102567.19;103995;1303;70320;-74
2023/02/15 03:00:04;;;;;;;;;;;;;;;-1.78;76.93;102562.23;104333;1296;61252;-74
2023/02/15 03:02:53;;;;;;;;;;;;;;;-1.74;77.02;102564.30;104463;1296;61169;-74
2023/02/15 03:05:41;;;;;;;;;;;;;;;-1.74;76.78;102561.10;104411;1296;75292;-74
2023/02/15 03:08:33;;;;;;;;;;;;;;;-1.78;76.72;102556.42;104275;1296;67895;-74
2023/02/15 03:11:19;;;;;;;;;;;;;;;-1.84;76.71;102550.28;104651;1291;71718;-74
2023/02/15 03:14:06;;;;;;;;;;;;;;;-1.85;76.82;102550.06;105018;1289;60013;-74
2023/02/15 03:16:52;;;;;;;;;;;;;;;-1.85;76.80;102545.50;104982;1289;61222;-74
2023/02/15 03:19:38;;;;;;;;;;;;;;;-1.84;76.84;102538.63;104930;1290;75990;-74
2023/02/15 03:22:28;;;;;;;;;;;;;;;-1.85;76.75;102537.06;104986;1289;68113;-74
2023/02/15 03:25:27;;;;;;;;;;;;;;;-1.86;76.68;102531.60;104928;1291;71366;-74
2023/02/15 03:28:16;;;;;;;;;;;;;;;-1.87;76.71;102528.61;104828;1295;61030;-74
2023/02/15 03:31:04;;;;;;;;;;;;;;;-1.88;76.71;102524.84;104972;1289;61197;-74
2023/02/15 03:33:57;;;;;;;;;;;;;;;-1.89;76.80;102528.02;105002;1290;73323;-74
2023/02/15 03:36:49;;;;;;;;;;;;;;;-1.90;76.80;102527.75;105040;1289;70210;-74
2023/02/15 03:39:42;;;;;;;;;;;;;;;-1.91;76.79;102528.92;105013;1292;73645;-74
2023/02/15 03:42:31;;;;;;;;;;;;;;;-1.93;76.75;102531.80;104988;1289;61146;-74
2023/02/15 03:45:22;;;;;;;;;;;;;;;-1.97;76.71;102530.37;104904;1289;61111;-74
2023/02/15 03:48:09;;;;;;;;;;;;;;;-1.98;76.74;102527.91;104863;1290;73440;-74
2023/02/15 03:54:43;;;;;;;;;;;;;;;-1.99;76.78;102519.71;105051;1290;71914;-74
2023/02/15 04:03:45;;;;;;;;;;;;;;;-2.03;76.71;102523.55;104546;1295;73440;-74
2023/02/15 04:06:31;;;;;;;;;;;;;;;-2.06;76.71;102521.85;104481;1294;67305;-74
2023/02/15 04:12:32;;;;;;;;;;;;;;;-2.09;76.87;102517.27;104532;1299;61444;-74
2023/02/15 04:27:41;;;;;;;;;;;;;;;-2.11;76.77;102507.33;104464;1294;61383;-74
2023/02/15 04:30:27;;;;;;;;;;;;;;;-2.15;76.73;102504.89;104469;1299;61742;-75
2023/02/15 04:33:13;;;;;;;;;;;;;;;-2.18;76.75;102500.80;104514;1298;74711;-74
2023/02/15 04:35:59;;;;;;;;;;;;;;;-2.21;76.79;102494.52;104979;1293;67205;-74
2023/02/15 04:38:46;;;;;;;;;;;;;;;-2.22;76.76;102493.23;105028;1290;71207;-74
2023/02/15 04:41:32;;;;;;;;;;;;;;;-2.21;76.85;102491.95;105063;1289;60959;-74
2023/02/15 04:44:18;;;;;;;;;;;;;;;-2.21;76.85;102492.83;105129;1288;59395;-74
2023/02/15 04:47:04;;;;;;;;;;;;;;;-2.22;76.77;102492.20;105072;1288;73268;-74
2023/02/15 04:49:50;;;;;;;;;;;;;;;-2.24;76.82;102491.92;105096;1288;67305;-75
2023/02/15 04:52:36;;;;;;;;;;;;;;;-2.25;76.84;102489.48;105105;1288;73916;-74
2023/02/15 04:55:22;;;;;;;;;;;;;;;-2.25;76.81;102488.16;104967;1287;59270;-74
2023/02/15 04:58:09;;;;;;;;;;;;;;;-2.23;76.86;102490.61;105120;1287;61194;-74
2023/02/15 05:00:56;;;;;;;;;;;;;;;-2.25;76.77;102490.33;105098;1288;73334;-74
2023/02/15 05:03:42;;;;;;;;;;;;;;;-2.28;76.76;102494.17;104952;1288;67844;-74
2023/02/15 05:06:28;;;;;;;;;;;;;;;-2.34;76.74;102496.04;104970;1288;71234;-74
2023/02/15 05:09:14;;;;;;;;;;;;;;;-2.38;76.78;102493.04;105143;1288;61490;-76
2023/02/15 05:12:00;;;;;;;;;;;;;;;-2.42;76.81;102491.39;105122;1288;62801;-76
2023/02/15 05:14:46;;;;;;;;;;;;;;;-2.44;76.85;102490.27;105085;1289;73401;-76
2023/02/15 05:17:33;;;;;;;;;;;;;;;-2.44;76.81;102492.65;105108;1288;66609;-76
2023/02/15 05:20:20;;;;;;;;;;;;;;;-2.43;76.90;102492.73;105105;1288;72367;-76
2023/02/15 05:23:06;;;;;;;;;;;;;;;-2.40;76.96;102493.29;105079;1293;61402;-76
2023/02/15 05:28:57;;;;;;;;;;;;;;;-2.37;76.82;102489.36;105088;1290;74423;-76
2023/02/15 05:31:46;;;;;;;;;;;;;;;-2.37;76.82;102489.39;105019;1288;70077;-76
2023/02/15 05:34:32;;;;;;;;;;;;;;;-2.37;76.89;102485.19;105026;1288;71210;-76
2023/02/15 05:37:19;;;;;;;;;;;;;;;-2.38;76.87;102487.17;105077;1288;61282;-74
2023/02/15 05:40:05;;;;;;;;;;;;;;;-2.43;76.79;102489.16;105107;1291;59479;-74
2023/02/15 05:42:51;;;;;;;;;;;;;;;-2.49;76.82;102483.89;105040;1289;73200;-75
2023/02/15 05:45:37;;;;;;;;;;;;;;;-2.49;76.81;102487.70;104980;1290;67333;-75
2023/02/15 05:48:24;;;;;;;;;;;;;;;-2.49;76.88;102486.58;104916;1291;71478;-75
2023/02/15 05:51:15;;;;;;;;;;;;;;;-2.46;76.85;102482.35;104911;1291;59876;-75
2023/02/15 05:54:01;;;;;;;;;;;;;;;-2.45;76.81;102480.90;105048;1290;61147;-75
2023/02/15 05:56:48;;;;;;;;;;;;;;;-2.46;76.88;102478.67;105087;1289;74164;-75
2023/02/15 05:59:34;;;;;;;;;;;;;;;-2.47;76.82;102476.90;105064;1289;69996;-75
2023/02/15 06:02:20;;;;;;;;;;;;;;;-2.50;76.77;102477.67;104973;1288;72333;-75
2023/02/15 06:05:07;;;;;;;;;;;;;;;-2.52;76.82;102478.59;105072;1290;59406;-75
2023/02/15 06:07:53;;;;;;;;;;;;;;;-2.52;76.88;102481.63;105009;1290;61622;-75
2023/02/15 06:10:39;;;;;;;;;;;;;;;-2.51;76.90;102484.06;104989;1293;73845;-75
2023/02/15 06:13:26;;;;;;;;;;;;;;;-2.51;76.86;102483.57;105051;1291;67474;-75
2023/02/15 06:16:12;;;;;;;;;;;;;;;-2.52;76.82;102483.66;105065;1290;71204;-75
2023/02/15 06:18:59;;;;;;;;;;;;;;;-2.51;76.95;102479.00;105028;1293;59988;-75
2023/02/15 06:21:45;;;;;;;;;;;;;;;-2.49;76.84;102477.23;104945;1290;61233;-75
2023/02/15 06:24:31;;;;;;;;;;;;;;;-2.51;76.80;102478.34;104991;1289;73916;-75
2023/02/15 06:27:17;;;;;;;;;;;;;;;-2.52;76.88;102474.17;104956;1291;67424;-75
2023/02/15 06:30:04;;;;;;;;;;;;;;;-2.51;77.02;102471.41;104981;1291;73140;-75
2023/02/15 06:32:51;;;;;;;;;;;;;;;-2.50;76.94;102467.23;104999;1289;61298;-75
2023/02/15 06:35:37;;;;;;;;;;;;;;;-2.51;76.89;102461.57;104879;1293;61018;-75
2023/02/15 06:38:23;;;;;;;;;;;;;;;-2.52;76.93;102457.66;105078;1288;76475;-75
2023/02/15 06:41:09;;;;;;;;;;;;;;;-2.48;77.05;102452.83;105086;1292;68969;-75
2023/02/15 06:43:55;;;;;;;;;;;;;;;-2.40;77.22;102454.22;104975;1288;70139;-75
2023/02/15 06:46:41;;;;;;;;;;;;;;;-2.34;77.10;102453.25;104936;1289;61295;-75
2023/02/15 06:49:28;;;;;;;;;;;;;;;-2.28;77.05;102456.84;104987;1292;61253;-75
2023/02/15 06:52:14;;;;;;;;;;;;;;;-2.23;77.10;102454.64;106143;1288;73693;-75
2023/02/15 06:55:00;;;;;;;;;;;;;;;-2.13;77.18;102457.17;106090;1290;67813;-75
2023/02/15 06:57:46;;;;;;;;;;;;;;;-2.00;77.32;102454.13;106215;1290;71292;-76
2023/02/15 07:00:32;;;;;;;;;;;;;;;-1.85;77.26;102455.75;106179;1290;58980;-76
2023/02/15 07:03:18;;;;;;;;;;;;;;;-1.67;77.31;102455.23;105557;1290;61257;-75
2023/02/15 07:06:07;;;;;;;;;;;;;;;-1.43;77.50;102460.09;105078;1290;75092;-75
2023/02/15 07:08:54;;;;;;;;;;;;;;;-1.13;77.52;102463.14;104959;1291;68710;-75
2023/02/15 07:14:44;;;;;;;;;;;;;;;-0.72;77.37;102458.46;105034;1289;61131;-75
2023/02/15 07:17:31;;;;;;;;;;;;;;;-0.59;77.39;102455.64;104870;1289;65159;-75
2023/02/15 07:20:22;;;;;;;;;;;;;;;-0.48;77.45;102446.99;104956;1290;74110;-75
2023/02/15 07:23:08;;;;;;;;;;;;;;;-0.30;77.57;102445.66;104913;1288;68820;-75
2023/02/15 07:26:01;;;;;;;;;;;;;;;0.01;77.76;102441.15;105156;1289;73039;-75
2023/02/15 07:28:47;;;;;;;;;;;;;;;0.26;77.57;102432.38;104848;1291;60205;-75
2023/02/15 07:31:33;;;;;;;;;;;;;;;0.33;77.40;102433.27;105018;1293;59110;-75
2023/02/15 07:34:19;;;;;;;;;;;;;;;0.38;77.43;102433.14;104888;1288;78044;-75
2023/02/15 07:37:05;;;;;;;;;;;;;;;0.48;77.59;102426.56;105116;1291;72384;-75
2023/02/15 07:39:52;;;;;;;;;;;;;;;0.66;77.79;102424.46;104857;1289;70840;-75
2023/02/15 07:42:38;;;;;;;;;;;;;;;0.85;77.94;102420.08;104936;1288;61357;-75
2023/02/15 07:45:24;;;;;;;;;;;;;;;1.06;77.89;102417.41;104886;1290;61131;-75
2023/02/15 07:48:11;;;;;;;;;;;;;;;1.13;77.76;102415.39;104982;1290;74688;-75
2023/02/15 07:51:00;;;;;;;;;;;;;;;1.24;77.94;102411.88;105091;1291;68188;-75
2023/02/15 07:53:46;;;;;;;;;;;;;;;1.39;78.08;102405.66;104945;1288;71067;-75
2023/02/15 07:56:33;;;;;;;;;;;;;;;1.50;78.08;102403.80;105045;1289;60105;-75
2023/02/15 07:59:19;;;;;;;;;;;;;;;1.61;78.16;102399.44;104994;1290;61269;-75
2023/02/15 08:02:09;;;;;;;;;;;;;;;1.81;78.33;102396.83;104904;1289;73341;-75
2023/02/15 08:04:55;;;;;;;;;;;;;;;1.95;78.27;102392.06;104958;1288;70866;-75
2023/02/15 08:07:41;;;;;;;;;;;;;;;2.17;78.43;102390.02;104857;1291;73074;-75
2023/02/15 08:11:25;;;;;;;;;;;;;;;2.37;78.31;102393.67;104902;1290;59328;-75
2023/02/15 08:13:33;;;;;;;;;;;;;;;2.36;78.11;102390.57;105059;1290;59353;-75
2023/02/15 08:16:27;;;;;;;;;;;;;;;2.30;78.16;102385.17;105026;1293;73192;-75
2023/02/15 08:19:17;;;;;;;;;;;;;;;2.34;78.36;102377.52;104937;1288;68311;-75
2023/02/15 08:22:07;;;;;;;;;;;;;;;2.52;78.51;102378.85;105087;1291;72964;-75
2023/02/15 08:24:53;;;;;;;;;;;;;;;2.69;78.29;102377.54;104965;1289;61193;-75
2023/02/15 08:27:40;;;;;;;;;;;;;;;2.75;78.28;102377.99;105019;1288;62856;-75
2023/02/15 08:30:26;;;;;;;;;;;;;;;2.77;78.30;102369.56;105076;1290;73447;-76
2023/02/15 08:33:12;;;;;;;;;;;;;;;2.76;78.36;102368.98;104861;1290;67665;-76
2023/02/15 08:36:02;;;;;;;;;;;;;;;2.73;78.49;102368.70;104916;1291;72123;-75
2023/02/15 08:38:48;;;;;;;;;;;;;;;2.72;78.51;102365.05;105042;1289;59544;-75
2023/02/15 08:41:35;;;;;;;;;;;;;;;2.69;78.60;102362.89;104855;1293;61299;-75
2023/02/15 08:44:22;;;;;;;;;;;;;;;2.68;78.65;102357.42;106250;1288;73423;-75
2023/02/15 08:47:08;;;;;;;;;;;;;;;2.68;78.71;102353.48;106232;1290;69110;-75
2023/02/15 08:49:54;;;;;;;;;;;;;;;2.68;78.79;102354.50;106071;1289;71069;-75
2023/02/15 08:52:39;;;;;;;;;;;;;;;2.69;78.78;102350.48;105958;1289;58764;-75
2023/02/15 08:55:26;;;;;;;;;;;;;;;2.70;78.83;102351.72;106089;1288;59225;-75
2023/02/15 08:58:12;;;;;;;;;;;;;;;2.74;78.78;102353.23;106035;1289;74749;-75
2023/02/15 09:00:58;;;;;;;;;;;;;;;2.79;78.92;102352.45;106096;1290;68048;-75
2023/02/15 09:03:46;;;;;;;;;;;;;;;2.82;78.85;102348.33;105976;1290;71387;-75
2023/02/15 09:06:32;;;;;;;;;;;;;;;2.84;78.87;102337.50;106042;1288;59344;-77
2023/02/15 09:09:19;;;;;;;;;;;;;;;2.90;79.00;102332.31;105976;1290;58927;-78
2023/02/15 09:12:05;;;;;;;;;;;;;;;2.94;78.98;102328.26;106015;1290;74559;-78
2023/02/15 09:14:51;;;;;;;;;;;;;;;3.00;79.02;102320.14;105931;1290;69493;-78
2023/02/15 09:17:36;;;;;;;;;;;;;;;3.07;79.06;102322.65;106080;1289;71149;-77
2023/02/15 09:20:23;;;;;;;;;;;;;;;3.14;79.06;102324.11;105959;1289;59181;-77
2023/02/15 09:23:09;;;;;;;;;;;;;;;3.20;79.04;102318.92;105938;1289;59541;-77
2023/02/15 09:25:55;;;;;;;;;;;;;;;3.26;79.02;102315.77;106064;1289;74177;-77
2023/02/15 09:28:41;;;;;;;;;;;;;;;3.32;79.04;102311.42;105888;1290;68108;-77
2023/02/15 09:31:29;;;;;;;;;;;;;;;3.37;78.96;102306.16;106042;1290;72384;-77
2023/02/15 09:34:16;;;;;;;;;;;;;;;3.43;79.02;102307.58;106025;1290;58900;-77
2023/02/15 09:37:04;;;;;;;;;;;;;;;3.48;78.98;102305.39;106013;1292;59327;-77
2023/02/15 09:39:50;;;;;;;;;;;;;;;3.54;79.08;102301.73;106068;1291;73480;-77
2023/02/15 09:42:39;;;;;;;;;;;;;;;3.60;79.12;102292.43;106114;1288;67512;-77
2023/02/15 09:45:31;;;;;;;;;;;;;;;3.66;79.07;102288.86;106142;1288;71791;-78
2023/02/15 09:48:27;;;;;;;;;;;;;;;3.71;79.06;102286.17;105555;1288;59276;-77
2023/02/15 09:51:36;;;;;;;;;;;;;;;3.77;79.19;102284.52;104914;1288;61771;-77
2023/02/15 09:54:30;;;;;;;;;;;;;;;3.82;79.09;102276.52;104324;1296;74962;-77
2023/02/15 09:57:22;;;;;;;;;;;;;;;3.86;79.08;102271.56;104331;1296;66691;-77
2023/02/15 10:00:30;;;;;;;;;;;;;;;3.90;79.11;102272.56;104427;1297;71494;-77
2023/02/15 10:03:25;;;;;;;;;;;;;;;3.93;79.09;102277.47;104284;1296;59791;-77
2023/02/15 10:06:28;;;;;;;;;;;;;;;3.97;79.01;102271.63;104443;1297;61100;-77
2023/02/15 10:09:33;;;;;;;;;;;;;;;3.99;79.07;102270.85;104469;1296;73382;-77
2023/02/15 10:12:25;;;;;;;;;;;;;;;4.04;79.07;102269.32;104430;1299;69180;-77
2023/02/15 10:15:14;;;;;;;;;;;;;;;4.09;79.14;102268.52;104311;1297;71286;-77
2023/02/15 10:18:06;;;;;;;;;;;;;;;4.16;79.15;102268.42;104399;1296;59497;-76
2023/02/15 10:20:57;;;;;;;;;;;;;;;4.22;79.08;102268.27;104334;1296;61237;-76
2023/02/15 10:23:43;;;;;;;;;;;;;;;4.26;79.10;102259.55;104456;1296;73342;-77
2023/02/15 10:26:41;;;;;;;;;;;;;;;4.31;78.99;102255.45;104411;1296;67269;-77
2023/02/15 10:29:34;;;;;;;;;;;;;;;4.35;79.06;102252.34;104437;1296;71190;-77
2023/02/15 10:32:23;;;;;;;;;;;;;;;4.41;79.07;102251.36;104981;1290;61303;-77
2023/02/15 10:35:11;;;;;;;;;;;;;;;4.46;79.02;102246.61;105089;1289;61233;-77
2023/02/15 10:37:59;;;;;;;;;;;;;;;4.52;78.92;102241.67;105056;1289;73124;-77
2023/02/15 10:40:51;;;;;;;;;;;;;;;4.57;78.92;102239.81;105128;1289;67421;-77
2023/02/15 10:44:00;;;;;;;;;;;;;;;4.61;78.88;102232.60;105171;1288;71158;-77
2023/02/15 10:47:06;;;;;;;;;;;;;;;4.63;78.84;102232.54;104749;1295;61234;-77
2023/02/15 10:49:58;;;;;;;;;;;;;;;4.67;78.88;102233.66;104341;1299;59339;-77
2023/02/15 10:53:03;;;;;;;;;;;;;;;4.69;78.78;102228.91;104336;1300;75089;-77
2023/02/15 10:56:19;;;;;;;;;;;;;;;4.72;78.76;102228.67;104341;1299;70062;-79
2023/02/15 10:59:08;;;;;;;;;;;;;;;4.76;78.84;102228.81;104214;1303;70563;-79
2023/02/15 11:02:04;;;;;;;;;;;;;;;4.82;78.87;102226.11;103866;1307;63026;-77
2023/02/15 11:04:54;;;;;;;;;;;;;;;4.86;78.81;102222.50;103865;1303;61193;-77
2023/02/15 11:07:43;;;;;;;;;;;;;;;4.88;78.74;102220.34;103935;1308;73561;-77
2023/02/15 11:10:47;;;;;;;;;;;;;;;4.90;78.80;102217.84;103854;1306;67246;-77
2023/02/15 11:13:38;;;;;;;;;;;;;;;4.93;78.82;102209.23;103773;1303;71534;-77
2023/02/15 11:16:30;;;;;;;;;;;;;;;4.94;78.75;102209.11;103988;1303;59271;-77
2023/02/15 11:19:22;;;;;;;;;;;;;;;4.97;78.72;102203.39;103825;1307;61224;-77
2023/02/15 11:22:09;;;;;;;;;;;;;;;5.01;78.76;102204.70;103833;1305;73144;-77
2023/02/15 11:24:57;;;;;;;;;;;;;;;5.06;78.73;102202.46;104121;1302;70135;-77
2023/02/15 11:27:45;;;;;;;;;;;;;;;5.10;78.73;102202.61;104340;1299;71121;-77
2023/02/15 11:30:43;;;;;;;;;;;;;;;5.14;78.73;102200.84;104542;1298;59400;-77
2023/02/15 11:33:35;;;;;;;;;;;;;;;5.18;78.68;102198.25;104486;1300;59345;-77
2023/02/15 11:36:26;;;;;;;;;;;;;;;5.22;78.63;102198.85;104870;1288;75716;-77
2023/02/15 11:39:15;;;;;;;;;;;;;;;5.24;78.53;102192.60;105177;1292;68354;-77
2023/02/15 11:42:04;;;;;;;;;;;;;;;5.26;78.50;102185.65;105168;1289;72015;-77
2023/02/15 11:44:56;;;;;;;;;;;;;;;5.25;78.39;102186.48;105002;1288;61137;-77
2023/02/15 11:47:42;;;;;;;;;;;;;;;5.25;78.42;102179.47;105177;1288;61158;-77
2023/02/15 11:50:30;;;;;;;;;;;;;;;5.25;78.35;102176.21;105068;1290;73287;-77
2023/02/15 11:53:20;;;;;;;;;;;;;;;5.24;78.35;102174.65;105165;1290;68891;-77
2023/02/15 11:56:13;;;;;;;;;;;;;;;5.24;78.40;102171.23;105112;1288;71642;-77
2023/02/15 11:59:03;;;;;;;;;;;;;;;5.24;78.39;102172.58;105165;1288;59666;-77
2023/02/15 12:01:49;;;;;;;;;;;;;;;5.23;78.40;102172.20;104995;1292;61222;-77
2023/02/15 12:04:41;;;;;;;;;;;;;;;5.22;78.42;102168.94;105050;1292;74150;-77
2023/02/15 12:07:40;;;;;;;;;;;;;;;5.23;78.43;102163.16;105960;1288;67553;-77
2023/02/15 12:10:33;;;;;;;;;;;;;;;5.24;78.41;102159.60;106040;1288;70392;-77
2023/02/15 12:13:20;;;;;;;;;;;;;;;5.25;78.41;102157.06;106034;1288;59334;-78
2023/02/15 12:16:07;;;;;;;;;;;;;;;5.28;78.41;102150.49;106078;1289;59347;-78
2023/02/15 12:18:58;;;;;;;;;;;;;;;5.32;78.37;102145.83;106084;1293;73274;-78
2023/02/15 12:21:46;;;;;;;;;;;;;;;5.38;78.45;102145.66;106191;1288;67676;-78
2023/02/15 12:24:34;;;;;;;;;;;;;;;5.45;78.43;102142.27;106040;1293;70620;-78
2023/02/15 12:27:22;;;;;;;;;;;;;;;5.50;78.37;102144.64;106103;1289;59319;-78
2023/02/15 12:30:28;;;;;;;;;;;;;;;5.54;78.33;102139.98;106080;1288;59110;-76
2023/02/15 12:33:25;;;;;;;;;;;;;;;5.59;78.33;102134.67;106144;1289;74579;-75
2023/02/15 12:36:18;;;;;;;;;;;;;;;5.66;78.40;102128.17;106097;1288;68327;-75
2023/02/15 12:39:17;;;;;;;;;;;;;;;5.69;78.33;102121.77;106133;1288;72940;-75
2023/02/15 12:42:05;;;;;;;;;;;;;;;5.74;78.20;102122.37;105984;1289;59348;-75
2023/02/15 12:44:54;;;;;;;;;;;;;;;5.76;78.27;102119.36;106099;1289;59921;-75
2023/02/15 12:47:40;;;;;;;;;;;;;;;5.77;78.22;102115.98;106134;1288;73473;-75
2023/02/15 12:50:28;;;;;;;;;;;;;;;5.79;78.28;102115.50;106161;1290;68373;-75
2023/02/15 12:53:14;;;;;;;;;;;;;;;5.81;78.30;102115.55;106065;1290;71135;-75
2023/02/15 12:56:01;;;;;;;;;;;;;;;5.84;78.25;102113.58;106122;1288;59396;-75
2023/02/15 12:58:47;;;;;;;;;;;;;;;5.87;78.27;102110.41;106121;1292;59802;-75
2023/02/15 13:01:33;;;;;;;;;;;;;;;5.90;78.29;102108.67;106109;1289;74571;-76
2023/02/15 13:04:29;;;;;;;;;;;;;;;5.95;78.26;102102.29;106051;1289;68648;-75
2023/02/15 13:07:15;;;;;;;;;;;;;;;6.00;78.27;102102.25;106024;1294;72430;-75
2023/02/15 13:10:01;;;;;;;;;;;;;;;6.05;78.15;102104.25;106105;1289;59532;-75
2023/02/15 13:12:47;;;;;;;;;;;;;;;6.07;78.17;102098.68;106058;1292;58844;-75
2023/02/15 13:15:35;;;;;;;;;;;;;;;6.10;78.21;102093.96;106142;1289;73207;-75
2023/02/15 13:18:43;;;;;;;;;;;;;;;6.13;78.13;102094.21;106139;1289;68978;-75
2023/02/15 13:21:36;;;;;;;;;;;;;;;6.14;78.10;102090.48;106056;1287;71315;-75
2023/02/15 13:24:24;;;;;;;;;;;;;;;6.14;78.10;102088.08;106193;1287;59185;-75
2023/02/15 13:27:16;;;;;;;;;;;;;;;6.15;78.03;102079.36;105963;1293;60057;-75
2023/02/15 13:30:04;;;;;;;;;;;;;;;6.16;78.03;102073.05;106138;1292;73358;-75
2023/02/15 13:32:52;;;;;;;;;;;;;;;6.21;78.08;102069.09;105987;1304;67232;-75
2023/02/15 13:35:43;;;;;;;;;;;;;;;6.25;78.11;102065.56;106052;1290;72096;-75
2023/02/15 13:38:48;;;;;;;;;;;;;;;6.28;78.07;102058.96;106144;1289;59294;-75
2023/02/15 13:41:43;;;;;;;;;;;;;;;6.27;78.06;102056.70;106072;1288;58827;-75
2023/02/15 13:44:49;;;;;;;;;;;;;;;6.29;78.03;102055.20;106087;1288;76085;-76
2023/02/15 13:47:53;;;;;;;;;;;;;;;6.30;78.03;102056.79;105417;1296;67433;-75
2023/02/15 13:50:48;;;;;;;;;;;;;;;6.30;78.00;102054.72;105505;1296;72096;-75
2023/02/15 13:53:47;;;;;;;;;;;;;;;6.29;77.95;102055.04;105477;1302;59052;-75
2023/02/15 13:56:39;;;;;;;;;;;;;;;6.30;78.00;102048.38;105470;1296;59538;-75
2023/02/15 13:59:56;;;;;;;;;;;;;;;6.30;77.94;102046.16;105458;1296;73591;-75
2023/02/15 14:03:00;;;;;;;;;;;;;;;6.30;77.94;102040.69;104969;1307;67515;-75
2023/02/15 14:06:05;;;;;;;;;;;;;;;6.28;77.93;102039.10;104917;1302;72427;-75
2023/02/15 14:08:57;;;;;;;;;;;;;;;6.25;77.78;102039.20;104984;1302;59042;-75
2023/02/15 14:11:58;;;;;;;;;;;;;;;6.24;77.90;102038.65;105043;1302;60174;-75
2023/02/15 14:15:13;;;;;;;;;;;;;;;6.21;77.77;102040.15;105030;1302;73669;-75
2023/02/15 14:18:22;;;;;;;;;;;;;;;6.18;77.88;102036.98;104378;1314;68441;-75
2023/02/15 14:21:22;;;;;;;;;;;;;;;6.18;77.93;102033.73;104093;1314;71436;-76
2023/02/15 14:24:37;;;;;;;;;;;;;;;6.18;77.93;102035.95;104188;1311;59335;-75
2023/02/15 14:27:53;;;;;;;;;;;;;;;6.18;77.90;102037.84;104084;1314;59977;-75
2023/02/15 14:30:43;;;;;;;;;;;;;;;6.18;77.99;102040.92;103658;1315;73340;-75
2023/02/15 14:33:42;;;;;;;;;;;;;;;6.20;77.92;102036.70;103624;1318;68688;-75
2023/02/15 14:36:29;;;;;;;;;;;;;;;6.22;77.97;102032.81;103630;1317;72662;-75
2023/02/15 14:43:07;;;;;;;;;;;;;;;6.22;77.87;102025.61;103577;1320;59321;-75
2023/02/15 14:45:55;;;;;;;;;;;;;;;6.19;77.85;102023.48;103516;1318;73897;-75
2023/02/15 14:48:49;;;;;;;;;;;;;;;6.16;77.72;102020.16;103589;1321;68478;-74
2023/02/15 14:51:45;;;;;;;;;;;;;;;6.14;77.93;102014.45;103343;1318;292173;-74
2023/02/15 14:54:33;;;;;;;;;;;;;;;6.11;77.88;102009.58;103757;1314;59284;-75
2023/02/15 14:57:23;;;;;;;;;;;;;;;6.08;77.84;102002.14;104088;1311;59800;-75
2023/02/15 15:00:27;;;;;;;;;;;;;;;6.06;77.84;102004.31;104201;1312;73537;-75
2023/02/15 15:03:23;;;;;;;;;;;;;;;6.01;77.77;102002.83;104360;1305;67486;-75
2023/02/15 15:06:22;;;;;;;;;;;;;;;5.96;77.82;102000.48;104865;1297;73532;-75